createdAt,value
2022-10-13T00:02:05.534Z,84.21
2022-10-13T00:05:10.250Z,84.55
2022-10-13T00:08:14.806Z,84.06
2022-10-13T00:11:30.493Z,84.13
2022-10-13T00:14:33.141Z,84.31
2022-10-13T00:17:39.189Z,84.54
2022-10-13T00:20:44.649Z,84.93
2022-10-13T00:23:48.200Z,85.99
2022-10-13T00:26:54.359Z,85.58
2022-10-13T00:29:57.355Z,84.94
2022-10-13T00:33:00.102Z,84.83
2022-10-13T00:36:06.812Z,84.25
2022-10-13T00:39:10.571Z,85.06
2022-10-13T00:42:13.893Z,85.00
2022-10-13T00:45:28.391Z,84.61
2022-10-13T00:48:31.432Z,85.79
2022-10-13T00:51:38.339Z,87.24
2022-10-13T00:54:41.650Z,86.97
2022-10-13T00:57:49.151Z,86.41
2022-10-13T01:00:53.695Z,86.29
2022-10-13T01:03:56.743Z,85.92
2022-10-13T01:07:00.539Z,85.35
2022-10-13T01:10:04.870Z,85.32
2022-10-13T01:13:26.354Z,86.01
2022-10-13T01:16:49.010Z,85.55
2022-10-13T01:20:06.437Z,86.21
2022-10-13T01:23:38.205Z,86.16
2022-10-13T01:27:04.350Z,85.91
2022-10-13T01:30:17.443Z,85.96
2022-10-13T01:33:34.312Z,85.48
2022-10-13T01:37:20.623Z,85.68
2022-10-13T01:40:32.460Z,85.27
2022-10-13T01:44:03.315Z,85.38
2022-10-13T01:47:09.233Z,85.67
2022-10-13T01:50:17.144Z,85.46
2022-10-13T01:53:21.715Z,85.27
2022-10-13T01:56:27.573Z,85.41
2022-10-13T01:59:36.249Z,85.93
2022-10-13T02:03:02.849Z,87.40
2022-10-13T02:06:28.793Z,88.92
2022-10-13T02:09:40.496Z,88.74
2022-10-13T02:12:59.996Z,87.95
2022-10-13T02:16:03.162Z,87.59
2022-10-13T02:19:08.312Z,87.60
2022-10-13T02:22:15.185Z,86.44
2022-10-13T02:25:18.103Z,86.28
2022-10-13T02:28:21.053Z,86.16
2022-10-13T02:31:24.023Z,86.17
2022-10-13T02:34:26.610Z,86.15
2022-10-13T02:37:29.510Z,85.34
2022-10-13T02:40:32.663Z,85.79
2022-10-13T02:43:38.026Z,85.23
2022-10-13T02:46:40.917Z,84.79
2022-10-13T02:49:43.871Z,84.85
2022-10-13T02:52:46.681Z,84.63
2022-10-13T02:55:50.301Z,84.26
2022-10-13T02:58:54.182Z,84.31
2022-10-13T03:01:57.069Z,84.35
2022-10-13T03:05:02.208Z,84.20
2022-10-13T03:08:05.632Z,84.00
2022-10-13T03:11:08.226Z,83.97
2022-10-13T03:14:11.238Z,83.65
2022-10-13T03:17:15.068Z,84.47
2022-10-13T03:20:18.102Z,84.50
2022-10-13T03:23:20.669Z,84.99
2022-10-13T03:26:23.695Z,85.29
2022-10-13T03:29:26.527Z,85.75
2022-10-13T03:32:32.447Z,85.19
2022-10-13T03:35:35.099Z,85.19
2022-10-13T03:38:38.408Z,85.00
2022-10-13T03:41:40.939Z,84.65
2022-10-13T03:44:43.861Z,84.42
2022-10-13T03:47:46.962Z,84.65
2022-10-13T03:50:51.228Z,83.97
2022-10-13T03:53:54.265Z,84.86
2022-10-13T03:56:57.383Z,85.16
2022-10-13T04:00:00.131Z,84.64
2022-10-13T04:03:04.176Z,84.37
2022-10-13T04:06:07.225Z,84.17
2022-10-13T04:09:09.898Z,83.74
2022-10-13T04:12:17.090Z,84.08
2022-10-13T04:15:22.719Z,83.92
2022-10-13T04:18:25.588Z,83.61
2022-10-13T04:21:30.509Z,83.78
2022-10-13T04:24:35.625Z,84.35
2022-10-13T04:27:39.578Z,84.16
2022-10-13T04:30:45.850Z,83.86
2022-10-13T04:33:51.945Z,84.32
2022-10-13T04:36:54.867Z,84.22
2022-10-13T04:39:58.466Z,83.99
2022-10-13T04:43:01.959Z,84.70
2022-10-13T04:46:09.965Z,84.22
2022-10-13T04:49:12.918Z,84.80
2022-10-13T04:52:18.348Z,85.62
2022-10-13T04:55:21.780Z,85.49
2022-10-13T04:58:24.428Z,85.14
2022-10-13T05:01:27.762Z,85.04
2022-10-13T05:04:31.179Z,84.68
2022-10-13T05:07:34.127Z,84.75
2022-10-13T05:10:38.101Z,84.92
2022-10-13T05:13:43.975Z,85.64
2022-10-13T05:16:46.979Z,86.11
2022-10-13T05:19:53.459Z,86.43
2022-10-13T05:22:57.139Z,86.95
2022-10-13T05:26:11.675Z,87.17
2022-10-13T05:29:14.269Z,87.59
2022-10-13T05:32:17.313Z,87.50
2022-10-13T05:35:20.063Z,87.83
2022-10-13T05:38:25.908Z,88.04
2022-10-13T05:41:30.389Z,87.77
2022-10-13T05:44:33.405Z,88.10
2022-10-13T05:47:35.925Z,88.55
2022-10-13T05:50:38.828Z,88.67
2022-10-13T05:53:50.359Z,89.08
2022-10-13T05:57:01.917Z,89.05
2022-10-13T06:00:08.846Z,88.92
2022-10-13T06:03:17.979Z,88.79
2022-10-13T06:06:25.813Z,88.55
2022-10-13T06:09:35.240Z,87.58
2022-10-13T06:12:38.838Z,86.67
2022-10-13T06:15:41.663Z,84.84
2022-10-13T06:18:45.691Z,83.26
2022-10-13T06:21:48.353Z,84.33
2022-10-13T06:24:51.319Z,84.00
2022-10-13T06:27:53.925Z,84.71
2022-10-13T06:30:57.969Z,84.57
2022-10-13T06:34:01.153Z,85.41
2022-10-13T06:37:04.120Z,85.63
2022-10-13T06:40:07.356Z,84.99
2022-10-13T06:43:10.683Z,84.87
2022-10-13T06:46:16.604Z,84.50
2022-10-13T06:49:20.118Z,82.40
2022-10-13T06:52:22.916Z,83.75
2022-10-13T06:55:27.512Z,82.74
2022-10-13T06:58:30.856Z,81.46
2022-10-13T07:01:36.741Z,81.93
2022-10-13T07:04:43.865Z,81.13
2022-10-13T07:07:46.742Z,80.61
2022-10-13T07:10:49.330Z,80.71
2022-10-13T07:13:54.583Z,80.27
2022-10-13T07:16:57.253Z,79.81
2022-10-13T07:20:03.725Z,79.16
2022-10-13T07:23:09.763Z,78.71
2022-10-13T07:26:16.030Z,78.14
2022-10-13T07:29:18.953Z,77.40
2022-10-13T07:32:21.903Z,76.89
2022-10-13T07:35:30.444Z,76.49
2022-10-13T07:38:33.859Z,75.59
2022-10-13T07:41:37.297Z,75.07
2022-10-13T07:44:42.932Z,74.31
2022-10-13T07:47:45.614Z,73.26
2022-10-13T07:50:48.520Z,72.90
2022-10-13T07:53:51.138Z,72.65
2022-10-13T07:56:56.094Z,71.66
2022-10-13T07:59:58.916Z,70.95
2022-10-13T08:03:01.890Z,69.88
2022-10-13T08:06:05.909Z,70.05
2022-10-13T08:09:09.195Z,69.40
2022-10-13T08:12:12.401Z,68.75
2022-10-13T08:15:15.883Z,67.93
2022-10-13T08:18:18.996Z,68.13
2022-10-13T08:21:57.476Z,67.25
2022-10-13T08:24:47.978Z,66.86
2022-10-13T08:27:54.644Z,66.24
2022-10-13T08:31:00.053Z,65.72
2022-10-13T08:34:02.872Z,63.62
2022-10-13T08:37:05.871Z,63.10
2022-10-13T08:40:14.779Z,60.56
2022-10-13T08:43:21.369Z,59.37
2022-10-13T08:46:28.989Z,57.52
2022-10-13T08:49:32.304Z,54.84
2022-10-13T08:52:55.555Z,53.51
2022-10-13T08:56:02.987Z,52.48
2022-10-13T08:59:06.828Z,51.61
2022-10-13T09:02:25.082Z,50.97
2022-10-13T09:05:41.619Z,49.69
2022-10-13T09:08:52.804Z,49.46
2022-10-13T09:11:55.603Z,49.75
2022-10-13T09:15:09.986Z,50.03
2022-10-13T09:18:16.283Z,49.80
2022-10-13T09:21:25.125Z,48.16
2022-10-13T09:24:29.542Z,47.25
2022-10-13T09:27:43.189Z,47.64
2022-10-13T09:30:49.765Z,46.23
2022-10-13T09:34:12.554Z,46.39
2022-10-13T09:37:25.955Z,44.43
2022-10-13T09:40:31.706Z,43.40
2022-10-13T09:43:37.783Z,42.76
2022-10-13T09:47:04.502Z,42.45
2022-10-13T09:50:23.171Z,43.10
2022-10-13T09:53:35.645Z,44.15
2022-10-13T09:56:49.275Z,42.19
2022-10-13T10:00:07.431Z,41.91
2022-10-13T10:03:28.045Z,40.90
2022-10-13T10:06:30.985Z,43.54
2022-10-13T10:09:41.875Z,41.42
2022-10-13T10:12:45.775Z,40.57
2022-10-13T10:16:01.306Z,41.12
2022-10-13T10:19:30.762Z,38.72
2022-10-13T10:22:58.179Z,39.51
2022-10-13T10:26:23.224Z,39.16
2022-10-13T10:29:49.311Z,39.30
2022-10-13T10:33:02.507Z,38.88
2022-10-13T10:36:17.315Z,38.41
2022-10-13T10:39:31.243Z,38.83
2022-10-13T10:42:52.563Z,38.96
2022-10-13T10:46:01.065Z,39.10
2022-10-13T10:49:19.822Z,40.29
2022-10-13T10:53:15.411Z,39.49
2022-10-13T10:56:27.986Z,39.45
2022-10-13T10:59:55.685Z,38.17
2022-10-13T11:03:08.159Z,39.21
2022-10-13T11:06:26.405Z,38.61
2022-10-13T11:09:44.040Z,39.35
2022-10-13T11:12:52.109Z,40.88
2022-10-13T11:15:55.915Z,41.02
2022-10-13T11:19:08.098Z,38.84
2022-10-13T11:22:12.486Z,39.45
2022-10-13T11:25:40.177Z,37.93
2022-10-13T11:28:42.968Z,38.75
2022-10-13T11:31:56.102Z,38.81
2022-10-13T11:35:05.612Z,39.11
2022-10-13T11:38:35.280Z,38.81
2022-10-13T11:42:02.137Z,40.40
2022-10-13T11:45:21.043Z,38.77
2022-10-13T11:48:39.385Z,41.79
2022-10-13T11:51:45.108Z,43.49
2022-10-13T11:55:25.296Z,41.64
2022-10-13T11:58:31.808Z,42.69
2022-10-13T12:01:35.643Z,41.59
2022-10-13T12:04:46.361Z,41.87
2022-10-13T12:07:50.595Z,39.50
2022-10-13T12:10:57.464Z,38.91
2022-10-13T12:14:01.612Z,38.91
2022-10-13T12:17:04.661Z,43.60
2022-10-13T12:20:23.469Z,39.53
2022-10-13T12:23:28.831Z,38.40
2022-10-13T12:26:31.419Z,38.66
2022-10-13T12:29:37.522Z,38.33
2022-10-13T12:32:50.554Z,38.56
2022-10-13T12:35:53.996Z,38.40
2022-10-13T12:39:01.080Z,38.02
2022-10-13T12:42:07.515Z,40.08
2022-10-13T12:45:24.764Z,38.93
2022-10-13T12:48:36.877Z,38.02
2022-10-13T12:51:40.740Z,38.03
2022-10-13T12:54:57.982Z,38.41
2022-10-13T12:58:01.005Z,39.47
2022-10-13T13:01:10.339Z,39.32
2022-10-13T13:04:32.801Z,39.45
2022-10-13T13:07:38.809Z,40.15
2022-10-13T13:10:55.044Z,40.17
2022-10-13T13:14:39.430Z,39.52
2022-10-13T13:17:59.552Z,40.37
2022-10-13T13:21:05.251Z,41.47
2022-10-13T13:24:21.713Z,41.92
2022-10-13T13:27:38.010Z,43.29
2022-10-13T13:30:41.274Z,44.18
2022-10-13T13:33:44.583Z,45.15
2022-10-13T13:36:49.284Z,45.27
2022-10-13T13:39:52.383Z,46.11
2022-10-13T13:42:56.050Z,47.10
2022-10-13T13:46:00.995Z,47.60
2022-10-13T13:49:03.722Z,48.59
2022-10-13T13:52:06.643Z,49.11
2022-10-13T13:55:09.525Z,49.39
2022-10-13T13:58:12.453Z,49.85
2022-10-13T14:01:15.934Z,50.27
2022-10-13T14:04:21.429Z,49.86
2022-10-13T14:07:25.001Z,50.72
2022-10-13T14:10:34.291Z,52.37
2022-10-13T14:13:37.044Z,51.91
2022-10-13T14:16:44.251Z,51.82
2022-10-13T14:19:46.805Z,51.59
2022-10-13T14:22:51.281Z,51.85
2022-10-13T14:25:54.219Z,51.60
2022-10-13T14:28:58.569Z,52.45
2022-10-13T14:32:01.411Z,52.37
2022-10-13T14:35:06.439Z,53.48
2022-10-13T14:38:09.200Z,53.78
2022-10-13T14:41:12.350Z,54.05
2022-10-13T14:44:16.227Z,53.58
2022-10-13T14:47:20.811Z,53.56
2022-10-13T14:50:23.927Z,53.80
2022-10-13T14:53:33.521Z,53.80
2022-10-13T14:56:36.335Z,54.04
2022-10-13T14:59:39.166Z,54.81
2022-10-13T15:02:42.664Z,55.20
2022-10-13T15:05:45.565Z,54.76
2022-10-13T15:08:49.031Z,54.99
2022-10-13T15:11:51.953Z,55.29
2022-10-13T15:14:54.534Z,55.45
2022-10-13T15:17:57.540Z,55.99
2022-10-13T15:21:00.166Z,56.66
2022-10-13T15:24:03.061Z,57.36
2022-10-13T15:27:05.675Z,57.35
2022-10-13T15:30:10.534Z,58.22
2022-10-13T15:33:13.365Z,58.39
2022-10-13T15:36:16.605Z,58.28
2022-10-13T15:39:19.361Z,59.06
2022-10-13T15:42:22.602Z,59.30
2022-10-13T15:45:26.055Z,59.91
2022-10-13T15:48:29.437Z,60.10
2022-10-13T15:51:33.610Z,61.83
2022-10-13T15:54:36.565Z,62.05
2022-10-13T15:57:39.474Z,63.59
2022-10-13T16:00:43.069Z,63.73
2022-10-13T16:03:46.049Z,65.79
2022-10-13T16:06:48.890Z,65.85
2022-10-13T16:09:54.139Z,67.11
2022-10-13T16:12:56.957Z,67.65
2022-10-13T16:16:02.718Z,68.58
2022-10-13T16:19:05.395Z,68.86
2022-10-13T16:22:08.527Z,69.01
2022-10-13T16:25:11.301Z,69.78
2022-10-13T16:28:17.934Z,69.85
2022-10-13T16:31:20.548Z,70.33
2022-10-13T16:34:23.856Z,70.72
2022-10-13T16:37:26.434Z,70.40
2022-10-13T16:40:29.388Z,70.60
2022-10-13T16:43:32.352Z,70.81
2022-10-13T16:46:35.217Z,70.91
2022-10-13T16:49:38.355Z,70.86
2022-10-13T16:52:41.603Z,70.87
2022-10-13T16:55:44.597Z,71.26
2022-10-13T16:59:05.243Z,71.66
2022-10-13T17:02:15.719Z,72.20
2022-10-13T17:05:20.348Z,72.12
2022-10-13T17:08:22.946Z,72.56
2022-10-13T17:11:30.162Z,73.22
2022-10-13T17:14:32.814Z,73.69
2022-10-13T17:17:36.893Z,73.63
2022-10-13T17:20:41.310Z,73.77
2022-10-13T17:23:48.533Z,74.68
2022-10-13T17:26:51.676Z,74.29
2022-10-13T17:29:55.035Z,74.94
2022-10-13T17:33:03.398Z,74.13
2022-10-13T17:36:09.586Z,73.95
2022-10-13T17:39:12.543Z,74.67
2022-10-13T17:42:19.168Z,74.82
2022-10-13T17:45:24.808Z,75.39
2022-10-13T17:48:28.022Z,75.19
2022-10-13T17:51:30.752Z,75.30
2022-10-13T17:54:35.084Z,74.59
2022-10-13T17:57:38.074Z,75.27
2022-10-13T18:01:08.145Z,74.59
2022-10-13T18:04:09.118Z,75.64
2022-10-13T18:07:12.261Z,74.93
2022-10-13T18:10:15.902Z,76.40
2022-10-13T18:13:18.922Z,76.79
2022-10-13T18:16:24.254Z,76.82
2022-10-13T18:19:27.147Z,76.69
2022-10-13T18:22:31.496Z,76.66
2022-10-13T18:25:36.870Z,77.50
2022-10-13T18:28:43.952Z,78.18
2022-10-13T18:31:50.588Z,77.67
2022-10-13T18:34:56.846Z,78.66
2022-10-13T18:37:59.891Z,79.11
2022-10-13T18:41:07.191Z,78.91
2022-10-13T18:44:10.922Z,78.87
2022-10-13T18:47:14.866Z,78.14
2022-10-13T18:50:17.881Z,78.82
2022-10-13T18:53:21.362Z,78.85
2022-10-13T18:56:26.660Z,78.56
2022-10-13T18:59:32.147Z,78.82
2022-10-13T19:02:34.907Z,78.71
2022-10-13T19:05:39.874Z,79.32
2022-10-13T19:08:45.301Z,78.94
2022-10-13T19:11:48.428Z,78.66
2022-10-13T19:14:52.089Z,78.14
2022-10-13T19:17:55.474Z,78.60
2022-10-13T19:21:00.434Z,78.04
2022-10-13T19:24:03.976Z,78.30
2022-10-13T19:27:07.259Z,78.17
2022-10-13T19:30:12.258Z,78.82
2022-10-13T19:33:16.822Z,78.62
2022-10-13T19:36:27.913Z,79.17
2022-10-13T19:39:35.239Z,78.84
2022-10-13T19:42:39.525Z,78.20
2022-10-13T19:45:47.280Z,78.38
2022-10-13T19:48:51.032Z,78.52
2022-10-13T19:51:55.416Z,79.89
2022-10-13T19:54:58.998Z,80.09
2022-10-13T19:58:01.637Z,80.40
2022-10-13T20:01:08.987Z,80.20
2022-10-13T20:04:12.555Z,80.08
2022-10-13T20:07:15.527Z,80.32
2022-10-13T20:10:20.823Z,79.76
2022-10-13T20:13:23.580Z,79.55
2022-10-13T20:16:27.411Z,79.59
2022-10-13T20:19:30.322Z,79.78
2022-10-13T20:22:33.427Z,79.91
2022-10-13T20:25:38.490Z,79.48
2022-10-13T20:28:43.590Z,80.12
2022-10-13T20:31:46.798Z,80.77
2022-10-13T20:34:49.711Z,81.03
2022-10-13T20:37:52.376Z,80.87
2022-10-13T20:40:56.137Z,81.00
2022-10-13T20:44:00.353Z,80.60
2022-10-13T20:47:05.850Z,80.46
2022-10-13T20:50:09.924Z,79.98
2022-10-13T20:53:12.827Z,80.57
2022-10-13T20:56:20.063Z,80.75
2022-10-13T20:59:23.027Z,81.37
2022-10-13T21:02:25.672Z,82.70
2022-10-13T21:05:32.500Z,82.79
2022-10-13T21:08:35.124Z,83.17
2022-10-13T21:11:39.751Z,83.21
2022-10-13T21:14:44.689Z,82.21
2022-10-13T21:17:49.746Z,82.16
2022-10-13T21:20:52.501Z,81.68
2022-10-13T21:24:00.618Z,81.87
2022-10-13T21:27:03.355Z,81.49
2022-10-13T21:30:07.074Z,81.95
2022-10-13T21:33:09.673Z,81.62
2022-10-13T21:36:14.961Z,81.57
2022-10-13T21:39:17.515Z,81.50
2022-10-13T21:42:32.338Z,81.25
2022-10-13T21:45:35.109Z,81.01
2022-10-13T21:48:38.529Z,81.68
2022-10-13T21:51:41.430Z,81.52
2022-10-13T21:54:44.401Z,82.58
2022-10-13T21:57:47.000Z,83.97
2022-10-13T22:00:49.958Z,84.64
2022-10-13T22:03:56.484Z,85.18
2022-10-13T22:07:00.990Z,84.25
2022-10-13T22:10:04.401Z,84.30
2022-10-13T22:13:07.033Z,83.75
2022-10-13T22:16:21.725Z,83.38
2022-10-13T22:19:27.698Z,83.37
2022-10-13T22:22:31.166Z,83.18
2022-10-13T22:25:33.907Z,83.03
2022-10-13T22:28:37.773Z,82.75
2022-10-13T22:31:40.620Z,82.62
2022-10-13T22:34:44.249Z,82.64
2022-10-13T22:37:46.769Z,82.40
2022-10-13T22:40:49.687Z,82.33
2022-10-13T22:43:54.764Z,83.70
2022-10-13T22:46:57.656Z,83.62
2022-10-13T22:50:00.383Z,83.41
2022-10-13T22:53:03.294Z,83.12
2022-10-13T22:56:12.362Z,83.24
2022-10-13T22:59:15.297Z,83.51
2022-10-13T23:02:17.900Z,83.60
2022-10-13T23:05:21.010Z,84.54
2022-10-13T23:08:23.608Z,84.05
2022-10-13T23:11:26.689Z,83.72
2022-10-13T23:14:30.074Z,84.67
2022-10-13T23:17:33.994Z,84.19
2022-10-13T23:20:41.024Z,84.07
2022-10-13T23:23:44.919Z,83.94
2022-10-13T23:26:47.450Z,84.74
2022-10-13T23:29:50.330Z,85.06
2022-10-13T23:32:53.286Z,86.33
2022-10-13T23:35:57.731Z,85.98
2022-10-13T23:39:05.747Z,85.95
2022-10-13T23:42:09.437Z,85.89
2022-10-13T23:45:13.085Z,85.55
2022-10-13T23:48:16.057Z,85.45
2022-10-13T23:51:23.394Z,85.62
2022-10-13T23:54:26.321Z,85.37
2022-10-13T23:57:31.970Z,85.40
